createdAt,value
2024-02-15T00:00:53.753Z,10.8
2024-02-15T00:01:53.738Z,10.8
2024-02-15T00:02:55.578Z,10.8
2024-02-15T00:03:58.508Z,10.8
2024-02-15T00:04:53.806Z,10.8
2024-02-15T00:05:53.759Z,10.8
2024-02-15T00:06:53.728Z,10.8
2024-02-15T00:07:53.718Z,10.9
2024-02-15T00:08:53.737Z,10.9
2024-02-15T00:09:53.723Z,10.9
2024-02-15T00:10:53.749Z,10.9
2024-02-15T00:11:53.729Z,10.9
2024-02-15T00:12:53.739Z,10.9
2024-02-15T00:13:53.759Z,10.9
2024-02-15T00:14:53.758Z,10.9
2024-02-15T00:15:53.772Z,10.9
2024-02-15T00:16:53.728Z,10.9
2024-02-15T00:17:53.828Z,11
2024-02-15T00:18:53.799Z,11
2024-02-15T00:19:53.725Z,11
2024-02-15T00:20:53.726Z,11
2024-02-15T00:21:53.761Z,11
2024-02-15T00:22:53.714Z,11
2024-02-15T00:23:55.694Z,11
2024-02-15T00:24:58.514Z,10.9
2024-02-15T00:25:53.711Z,10.9
2024-02-15T00:26:53.734Z,10.9
2024-02-15T00:27:53.717Z,10.9
2024-02-15T00:28:53.733Z,10.9
2024-02-15T00:29:53.782Z,10.9
2024-02-15T00:30:53.733Z,10.9
2024-02-15T00:31:53.715Z,10.9
2024-02-15T00:32:53.763Z,10.9
2024-02-15T00:33:53.847Z,10.9
2024-02-15T00:34:53.770Z,10.9
2024-02-15T00:35:53.773Z,10.9
2024-02-15T00:36:53.719Z,10.9
2024-02-15T00:37:53.734Z,10.9
2024-02-15T00:38:53.734Z,10.9
2024-02-15T00:39:53.718Z,10.9
2024-02-15T00:40:53.770Z,10.9
2024-02-15T00:42:53.722Z,10.9
2024-02-15T00:43:53.746Z,10.9
2024-02-15T00:44:55.697Z,10.9
2024-02-15T00:45:58.657Z,10.9
2024-02-15T00:46:53.717Z,10.9
2024-02-15T00:47:53.804Z,10.9
2024-02-15T00:48:53.827Z,10.9
2024-02-15T00:49:53.824Z,10.9
2024-02-15T00:50:53.801Z,10.9
2024-02-15T00:51:53.719Z,10.9
2024-02-15T00:52:53.716Z,10.9
2024-02-15T00:53:53.737Z,10.9
2024-02-15T00:54:53.718Z,10.9
2024-02-15T00:55:53.737Z,10.9
2024-02-15T00:56:53.750Z,11
2024-02-15T00:57:53.731Z,10.9
2024-02-15T00:58:53.716Z,10.9
2024-02-15T00:59:53.733Z,11
2024-02-15T01:00:53.755Z,10.9
2024-02-15T01:01:53.727Z,11
2024-02-15T01:02:53.732Z,11
2024-02-15T01:03:53.749Z,11
2024-02-15T01:04:53.734Z,11
2024-02-15T01:05:55.975Z,11
2024-02-15T01:06:59.132Z,11
2024-02-15T01:07:53.718Z,10.9
2024-02-15T01:08:53.745Z,11
2024-02-15T01:09:53.735Z,10.9
2024-02-15T01:10:53.750Z,10.9
2024-02-15T01:11:53.754Z,10.9
2024-02-15T01:12:53.718Z,10.9
2024-02-15T01:13:53.720Z,10.9
2024-02-15T01:14:53.747Z,10.9
2024-02-15T01:15:53.745Z,10.9
2024-02-15T01:16:53.719Z,10.9
2024-02-15T01:17:53.804Z,10.9
2024-02-15T01:18:53.795Z,10.9
2024-02-15T01:19:53.743Z,10.9
2024-02-15T01:20:53.797Z,10.9
2024-02-15T01:21:53.716Z,10.9
2024-02-15T01:22:54.070Z,10.9
2024-02-15T01:23:53.741Z,10.9
2024-02-15T01:24:53.719Z,10.9
2024-02-15T01:25:53.728Z,10.9
2024-02-15T01:26:56.024Z,10.9
2024-02-15T01:27:58.907Z,10.9
2024-02-15T01:28:53.715Z,10.9
2024-02-15T01:29:53.773Z,10.9
2024-02-15T01:30:53.729Z,10.9
2024-02-15T01:31:53.710Z,10.9
2024-02-15T01:32:53.808Z,10.9
2024-02-15T01:33:53.794Z,10.9
2024-02-15T01:34:53.732Z,10.9
2024-02-15T01:35:53.749Z,10.9
2024-02-15T01:36:53.727Z,10.9
2024-02-15T01:37:54.108Z,10.9
2024-02-15T01:38:53.736Z,10.9
2024-02-15T01:39:53.716Z,10.9
2024-02-15T01:40:53.739Z,10.9
2024-02-15T01:41:53.755Z,10.9
2024-02-15T01:42:53.710Z,11
2024-02-15T01:43:53.725Z,10.9
2024-02-15T01:44:53.744Z,10.9
2024-02-15T01:45:53.760Z,10.9
2024-02-15T01:46:53.722Z,10.9
2024-02-15T01:47:53.815Z,10.9
2024-02-15T01:48:56.643Z,10.9
2024-02-15T01:49:59.387Z,10.9
2024-02-15T01:50:53.720Z,10.9
2024-02-15T01:51:53.744Z,10.9
2024-02-15T01:52:53.752Z,10.9
2024-02-15T01:53:53.760Z,10.9
2024-02-15T01:54:53.716Z,10.9
2024-02-15T01:55:53.715Z,10.9
2024-02-15T01:56:53.795Z,10.8
2024-02-15T01:57:53.732Z,10.9
2024-02-15T01:58:54.120Z,10.9
2024-02-15T01:59:53.753Z,10.8
2024-02-15T02:00:53.730Z,10.8
2024-02-15T02:01:53.726Z,10.8
2024-02-15T02:02:53.775Z,10.8
2024-02-15T02:03:53.744Z,10.8
2024-02-15T02:04:53.714Z,10.9
2024-02-15T02:05:53.728Z,10.9
2024-02-15T02:06:53.735Z,10.9
2024-02-15T02:07:53.726Z,10.9
2024-02-15T02:08:53.747Z,10.9
2024-02-15T02:09:56.521Z,10.9
2024-02-15T02:10:59.433Z,10.9
2024-02-15T02:11:53.785Z,10.9
2024-02-15T02:12:53.720Z,10.9
2024-02-15T02:13:53.723Z,10.9
2024-02-15T02:14:53.736Z,10.9
2024-02-15T02:15:53.733Z,10.9
2024-02-15T02:16:53.723Z,10.9
2024-02-15T02:17:53.766Z,10.9
2024-02-15T02:18:53.778Z,10.9
2024-02-15T02:19:54.167Z,10.9
2024-02-15T02:20:53.727Z,10.9
2024-02-15T02:21:53.718Z,10.9
2024-02-15T02:22:53.723Z,10.9
2024-02-15T02:23:53.759Z,10.9
2024-02-15T02:24:53.712Z,10.9
2024-02-15T02:25:53.737Z,10.9
2024-02-15T02:26:53.730Z,10.9
2024-02-15T02:27:53.713Z,10.9
2024-02-15T02:28:53.719Z,10.9
2024-02-15T02:29:53.750Z,10.9
2024-02-15T02:30:56.621Z,10.9
2024-02-15T02:31:59.546Z,10.9
2024-02-15T02:32:53.816Z,10.9
2024-02-15T02:33:53.894Z,10.9
2024-02-15T02:34:53.742Z,10.9
2024-02-15T02:35:53.754Z,10.9
2024-02-15T02:36:53.718Z,10.9
2024-02-15T02:37:53.710Z,10.9
2024-02-15T02:38:53.760Z,10.9
2024-02-15T02:39:53.785Z,10.9
2024-02-15T02:40:53.748Z,10.9
2024-02-15T02:41:53.748Z,10.9
2024-02-15T02:42:53.710Z,10.9
2024-02-15T02:43:53.725Z,10.9
2024-02-15T02:44:53.747Z,10.9
2024-02-15T02:45:53.743Z,10.9
2024-02-15T02:46:53.721Z,10.8
2024-02-15T02:47:54.410Z,10.9
2024-02-15T02:48:53.855Z,10.8
2024-02-15T02:49:53.725Z,10.9
2024-02-15T02:50:54.606Z,10.9
2024-02-15T02:51:56.683Z,10.9
2024-02-15T02:52:59.736Z,10.9
2024-02-15T02:53:53.735Z,10.8
2024-02-15T02:54:53.729Z,10.8
2024-02-15T02:55:53.740Z,10.9
2024-02-15T02:56:53.735Z,10.9
2024-02-15T02:57:53.721Z,10.9
2024-02-15T02:58:53.726Z,10.9
2024-02-15T02:59:53.743Z,10.9
2024-02-15T03:00:53.751Z,10.9
2024-02-15T03:01:53.720Z,10.9
2024-02-15T03:02:53.741Z,10.9
2024-02-15T03:04:53.734Z,11
2024-02-15T03:05:53.765Z,11
2024-02-15T03:06:53.784Z,11
2024-02-15T03:07:53.735Z,11
2024-02-15T03:08:53.763Z,11
2024-02-15T03:09:53.719Z,11.1
2024-02-15T03:10:53.727Z,11.1
2024-02-15T03:11:53.723Z,11.1
2024-02-15T03:12:56.759Z,11.1
2024-02-15T03:13:59.655Z,11.1
2024-02-15T03:14:53.727Z,11.1
2024-02-15T03:15:53.736Z,11.1
2024-02-15T03:16:53.715Z,11.1
2024-02-15T03:17:53.808Z,11.1
2024-02-15T03:18:53.778Z,11.1
2024-02-15T03:19:53.730Z,11.1
2024-02-15T03:20:53.755Z,11.1
2024-02-15T03:21:53.718Z,11.1
2024-02-15T03:22:53.736Z,11.1
2024-02-15T03:23:53.720Z,11.1
2024-02-15T03:24:53.741Z,11.1
2024-02-15T03:25:53.740Z,11.1
2024-02-15T03:26:53.729Z,11.1
2024-02-15T03:27:53.718Z,11
2024-02-15T03:28:53.736Z,11
2024-02-15T03:29:53.765Z,11
2024-02-15T03:30:53.720Z,11
2024-02-15T03:31:53.731Z,11
2024-02-15T03:32:53.896Z,11
2024-02-15T03:33:57.109Z,11
2024-02-15T03:34:59.974Z,11
2024-02-15T03:35:53.746Z,11
2024-02-15T03:36:53.865Z,11
2024-02-15T03:37:53.865Z,11
2024-02-15T03:38:53.733Z,11
2024-02-15T03:39:53.722Z,11
2024-02-15T03:40:53.742Z,11
2024-02-15T03:41:53.748Z,11
2024-02-15T03:42:53.807Z,11
2024-02-15T03:43:53.712Z,10.9
2024-02-15T03:44:53.770Z,10.9
2024-02-15T03:45:53.733Z,10.9
2024-02-15T03:46:53.744Z,10.9
2024-02-15T03:47:53.793Z,10.9
2024-02-15T03:48:53.719Z,10.9
2024-02-15T03:49:53.724Z,10.9
2024-02-15T03:50:53.717Z,10.9
2024-02-15T03:51:53.731Z,10.8
2024-02-15T03:52:53.719Z,10.8
2024-02-15T03:53:53.922Z,10.8
2024-02-15T03:54:56.871Z,10.8
2024-02-15T03:55:59.888Z,10.8
2024-02-15T03:56:53.997Z,10.7
2024-02-15T03:57:53.872Z,10.7
2024-02-15T03:58:53.733Z,10.7
2024-02-15T03:59:53.733Z,10.6
2024-02-15T04:00:53.724Z,10.6
2024-02-15T04:01:53.742Z,10.6
2024-02-15T04:02:53.754Z,10.6
2024-02-15T04:03:53.726Z,10.5
2024-02-15T04:04:53.753Z,10.5
2024-02-15T04:05:53.734Z,10.5
2024-02-15T04:06:53.892Z,10.5
2024-02-15T04:07:53.734Z,10.4
2024-02-15T04:08:53.745Z,10.4
2024-02-15T04:09:53.715Z,10.4
2024-02-15T04:10:53.949Z,10.4
2024-02-15T04:11:53.795Z,10.4
2024-02-15T04:12:53.713Z,10.4
2024-02-15T04:13:53.717Z,10.4
2024-02-15T04:14:53.926Z,10.4
2024-02-15T04:15:57.021Z,10.4
2024-02-15T04:16:59.991Z,10.4
2024-02-15T04:17:53.769Z,10.5
2024-02-15T04:18:54.091Z,10.5
2024-02-15T04:19:53.743Z,10.5
2024-02-15T04:20:53.741Z,10.5
2024-02-15T04:21:53.743Z,10.5
2024-02-15T04:22:53.724Z,10.5
2024-02-15T04:23:53.759Z,10.5
2024-02-15T04:24:53.717Z,10.5
2024-02-15T04:25:53.738Z,10.6
2024-02-15T04:26:53.725Z,10.6
2024-02-15T04:27:53.712Z,10.6
2024-02-15T04:28:53.716Z,10.6
2024-02-15T04:29:53.745Z,10.6
2024-02-15T04:30:53.747Z,10.6
2024-02-15T04:31:53.734Z,10.6
2024-02-15T04:32:53.767Z,10.6
2024-02-15T04:33:53.878Z,10.6
2024-02-15T04:34:53.733Z,10.6
2024-02-15T04:35:54.038Z,10.6
2024-02-15T04:36:57.132Z,10.6
2024-02-15T04:38:00.115Z,10.6
2024-02-15T04:38:53.832Z,10.6
2024-02-15T04:39:54.051Z,10.5
2024-02-15T04:40:53.741Z,10.5
2024-02-15T04:41:53.787Z,10.5
2024-02-15T04:42:53.715Z,10.5
2024-02-15T04:43:53.719Z,10.5
2024-02-15T04:44:53.747Z,10.4
2024-02-15T04:45:53.740Z,10.4
2024-02-15T04:46:53.719Z,10.4
2024-02-15T04:47:53.956Z,10.4
2024-02-15T04:48:53.752Z,10.4
2024-02-15T04:49:53.741Z,10.4
2024-02-15T04:50:53.755Z,10.4
2024-02-15T04:52:53.722Z,10.4
2024-02-15T04:53:53.726Z,10.4
2024-02-15T04:54:53.718Z,10.4
2024-02-15T04:55:53.721Z,10.4
2024-02-15T04:56:54.160Z,10.4
2024-02-15T04:57:57.237Z,10.4
2024-02-15T04:59:00.231Z,10.3
2024-02-15T04:59:53.732Z,10.4
2024-02-15T05:00:54.192Z,10.3
2024-02-15T05:01:53.718Z,10.3
2024-02-15T05:02:53.750Z,10.3
2024-02-15T05:03:53.741Z,10.3
2024-02-15T05:04:53.831Z,10.3
2024-02-15T05:05:53.812Z,10.3
2024-02-15T05:07:53.720Z,10.4
2024-02-15T05:08:53.751Z,10.4
2024-02-15T05:09:53.749Z,10.4
2024-02-15T05:10:53.842Z,10.4
2024-02-15T05:11:53.725Z,10.4
2024-02-15T05:12:53.717Z,10.4
2024-02-15T05:13:53.716Z,10.4
2024-02-15T05:14:53.743Z,10.5
2024-02-15T05:15:53.735Z,10.5
2024-02-15T05:16:53.714Z,10.5
2024-02-15T05:17:54.205Z,10.5
2024-02-15T05:18:57.558Z,10.5
2024-02-15T05:20:00.868Z,10.6
2024-02-15T05:20:53.738Z,10.6
2024-02-15T05:21:54.112Z,10.6
2024-02-15T05:22:53.729Z,10.6
2024-02-15T05:23:53.844Z,10.6
2024-02-15T05:24:53.717Z,10.6
2024-02-15T05:25:53.713Z,10.6
2024-02-15T05:26:53.846Z,10.7
2024-02-15T05:27:53.721Z,10.7
2024-02-15T05:28:53.744Z,10.7
2024-02-15T05:29:53.751Z,10.7
2024-02-15T05:30:53.710Z,10.8
2024-02-15T05:31:53.736Z,10.8
2024-02-15T05:32:53.874Z,10.8
2024-02-15T05:33:53.858Z,10.9
2024-02-15T05:34:53.753Z,10.9
2024-02-15T05:35:53.730Z,10.9
2024-02-15T05:36:53.729Z,10.9
2024-02-15T05:37:54.032Z,10.9
2024-02-15T05:38:54.256Z,10.9
2024-02-15T05:39:57.326Z,11
2024-02-15T05:41:00.389Z,11
2024-02-15T05:41:53.742Z,11
2024-02-15T05:42:53.733Z,11
2024-02-15T05:43:53.779Z,11
2024-02-15T05:44:53.743Z,11.1
2024-02-15T05:45:53.720Z,11.1
2024-02-15T05:46:53.715Z,11.1
2024-02-15T05:47:53.764Z,11
2024-02-15T05:48:53.823Z,11.1
2024-02-15T05:49:53.719Z,11.1
2024-02-15T05:50:53.749Z,11.1
2024-02-15T05:51:53.792Z,11.1
2024-02-15T05:52:53.925Z,11.1
2024-02-15T05:53:53.748Z,11.2
2024-02-15T05:54:53.729Z,11.2
2024-02-15T05:55:53.724Z,11.2
2024-02-15T05:56:54.031Z,11.2
2024-02-15T05:57:53.914Z,11.2
2024-02-15T05:58:53.732Z,11.2
2024-02-15T05:59:56.878Z,11.2
2024-02-15T06:00:53.746Z,11.2
2024-02-15T06:01:54.827Z,11.2
2024-02-15T06:02:57.993Z,11.2
2024-02-15T06:04:01.003Z,11.2
2024-02-15T06:04:53.717Z,11.2
2024-02-15T06:05:53.816Z,11.2
2024-02-15T06:06:53.786Z,11.2
2024-02-15T06:07:53.773Z,11.2
2024-02-15T06:08:53.731Z,11.2
2024-02-15T06:09:53.716Z,11.2
2024-02-15T06:10:53.738Z,11.2
2024-02-15T06:11:53.804Z,11.2
2024-02-15T06:12:53.710Z,11.2
2024-02-15T06:13:53.720Z,11.2
2024-02-15T06:14:53.798Z,11.2
2024-02-15T06:15:53.717Z,11.2
2024-02-15T06:16:53.720Z,11.2
2024-02-15T06:17:53.788Z,11.2
2024-02-15T06:18:53.769Z,11.2
2024-02-15T06:19:53.752Z,11.2
2024-02-15T06:20:55.768Z,11.2
2024-02-15T06:21:53.775Z,11.3
2024-02-15T06:22:54.854Z,11.3
2024-02-15T06:23:58.132Z,11.3
2024-02-15T06:25:00.809Z,11.3
2024-02-15T06:25:53.724Z,11.3
2024-02-15T06:26:53.729Z,11.3
2024-02-15T06:27:53.716Z,11.3
2024-02-15T06:28:53.737Z,11.3
2024-02-15T06:29:53.725Z,11.3
2024-02-15T06:30:53.712Z,11.3
2024-02-15T06:31:53.720Z,11.3
2024-02-15T06:32:53.743Z,11.3
2024-02-15T06:33:53.793Z,11.3
2024-02-15T06:34:53.751Z,11.3
2024-02-15T06:35:53.723Z,11.3
2024-02-15T06:36:53.712Z,11.3
2024-02-15T06:37:53.714Z,11.3
2024-02-15T06:38:53.752Z,11.3
2024-02-15T06:39:53.742Z,11.3
2024-02-15T06:40:53.715Z,11.3
2024-02-15T06:41:53.720Z,11.3
2024-02-15T06:42:53.719Z,11.3
2024-02-15T06:43:54.955Z,11.3
2024-02-15T06:44:58.001Z,11.3
2024-02-15T06:46:00.837Z,11.3
2024-02-15T06:47:53.819Z,11.3
2024-02-15T06:48:53.817Z,11.3
2024-02-15T06:49:53.720Z,11.3
2024-02-15T06:50:53.749Z,11.3
2024-02-15T06:51:53.724Z,11.3
2024-02-15T06:52:53.716Z,11.3
2024-02-15T06:53:53.726Z,11.3
2024-02-15T06:54:53.709Z,11.3
2024-02-15T06:55:53.716Z,11.3
2024-02-15T06:56:53.779Z,11.3
2024-02-15T06:57:53.710Z,11.3
2024-02-15T06:58:53.719Z,11.3
2024-02-15T06:59:53.741Z,11.3
2024-02-15T07:00:53.727Z,11.3
2024-02-15T07:01:53.711Z,11.3
2024-02-15T07:02:53.734Z,11.3
2024-02-15T07:03:54.625Z,11.3
2024-02-15T07:04:53.720Z,11.3
2024-02-15T07:05:56.665Z,11.3
2024-02-15T07:07:53.718Z,11.3
2024-02-15T07:08:53.733Z,11.3
2024-02-15T07:09:53.716Z,11.4
2024-02-15T07:10:53.727Z,11.4
2024-02-15T07:11:54.049Z,11.4
2024-02-15T07:12:53.722Z,11.4
2024-02-15T07:13:53.717Z,11.4
2024-02-15T07:14:53.784Z,11.4
2024-02-15T07:15:53.731Z,11.4
2024-02-15T07:16:53.726Z,11.4
2024-02-15T07:17:53.771Z,11.4
2024-02-15T07:18:54.084Z,11.4
2024-02-15T07:19:53.792Z,11.5
2024-02-15T07:20:53.737Z,11.5
2024-02-15T07:21:53.710Z,11.5
2024-02-15T07:22:53.726Z,11.5
2024-02-15T07:23:53.728Z,11.5
2024-02-15T07:24:53.719Z,11.5
2024-02-15T07:25:55.280Z,11.5
2024-02-15T07:26:58.237Z,11.5
2024-02-15T07:27:53.719Z,11.5
2024-02-15T07:28:53.720Z,11.5
2024-02-15T07:29:53.738Z,11.5
2024-02-15T07:31:53.717Z,11.5
2024-02-15T07:32:54.145Z,11.5
2024-02-15T07:33:53.807Z,11.5
2024-02-15T07:34:53.784Z,11.5
2024-02-15T07:35:53.789Z,11.5
2024-02-15T07:36:53.725Z,11.5
2024-02-15T07:37:53.724Z,11.5
2024-02-15T07:38:53.750Z,11.5
2024-02-15T07:39:53.731Z,11.5
2024-02-15T07:40:53.717Z,11.4
2024-02-15T07:41:53.781Z,11.5
2024-02-15T07:42:53.719Z,11.5
2024-02-15T07:43:53.715Z,11.4
2024-02-15T07:44:53.736Z,11.4
2024-02-15T07:45:53.723Z,11.4
2024-02-15T07:46:55.159Z,11.4
2024-02-15T07:47:58.606Z,11.4
2024-02-15T07:48:53.870Z,11.4
2024-02-15T07:49:53.742Z,11.4
2024-02-15T07:50:53.742Z,11.4
2024-02-15T07:51:53.747Z,11.4
2024-02-15T07:52:53.750Z,11.4
2024-02-15T07:53:54.126Z,11.4
2024-02-15T07:54:53.717Z,11.4
2024-02-15T07:55:53.731Z,11.4
2024-02-15T07:56:53.724Z,11.4
2024-02-15T07:57:53.720Z,11.4
2024-02-15T07:59:53.758Z,11.4
2024-02-15T08:00:53.748Z,11.4
2024-02-15T08:01:53.714Z,11.4
2024-02-15T08:02:53.725Z,11.4
2024-02-15T08:03:54.040Z,11.4
2024-02-15T08:04:53.780Z,11.4
2024-02-15T08:05:54.024Z,11.4
2024-02-15T08:06:53.891Z,11.4
2024-02-15T08:07:55.302Z,11.4
2024-02-15T08:08:58.527Z,11.4
2024-02-15T08:09:53.726Z,11.4
2024-02-15T08:10:53.763Z,11.4
2024-02-15T08:11:53.742Z,11.4
2024-02-15T08:12:53.894Z,11.4
2024-02-15T08:13:53.717Z,11.4
2024-02-15T08:14:54.083Z,11.4
2024-02-15T08:15:53.745Z,11.4
2024-02-15T08:16:53.724Z,11.4
2024-02-15T08:17:53.826Z,11.4
2024-02-15T08:18:53.832Z,11.4
2024-02-15T08:19:53.894Z,11.4
2024-02-15T08:20:53.798Z,11.4
2024-02-15T08:21:53.813Z,11.4
2024-02-15T08:22:53.968Z,11.4
2024-02-15T08:23:53.735Z,11.4
2024-02-15T08:24:53.876Z,11.4
2024-02-15T08:25:53.732Z,11.4
2024-02-15T08:26:53.778Z,11.4
2024-02-15T08:27:53.725Z,11.4
2024-02-15T08:28:55.391Z,11.4
2024-02-15T08:29:58.561Z,11.4
2024-02-15T08:30:53.726Z,11.4
2024-02-15T08:31:53.721Z,11.4
2024-02-15T08:32:53.756Z,11.4
2024-02-15T08:33:53.822Z,11.4
2024-02-15T08:34:53.822Z,11.4
2024-02-15T08:35:53.937Z,11.4
2024-02-15T08:36:53.761Z,11.4
2024-02-15T08:37:53.718Z,11.4
2024-02-15T08:38:53.775Z,11.4
2024-02-15T08:39:53.726Z,11.4
2024-02-15T08:40:53.735Z,11.4
2024-02-15T08:41:53.745Z,11.4
2024-02-15T08:42:53.715Z,11.4
2024-02-15T08:43:53.716Z,11.4
2024-02-15T08:44:53.798Z,11.4
2024-02-15T08:45:54.062Z,11.4
2024-02-15T08:46:53.719Z,11.5
2024-02-15T08:47:53.761Z,11.5
2024-02-15T08:48:53.814Z,11.5
2024-02-15T08:49:55.549Z,11.5
2024-02-15T08:50:58.955Z,11.5
2024-02-15T08:51:53.789Z,11.5
2024-02-15T08:52:53.723Z,11.6
2024-02-15T08:53:53.743Z,11.6
2024-02-15T08:54:53.720Z,11.6
2024-02-15T08:55:53.752Z,11.7
2024-02-15T08:56:53.738Z,11.7
2024-02-15T08:57:53.715Z,11.7
2024-02-15T08:58:53.717Z,11.7
2024-02-15T08:59:53.735Z,11.7
2024-02-15T09:00:53.792Z,11.7
2024-02-15T09:01:53.716Z,11.7
2024-02-15T09:02:53.734Z,11.8
2024-02-15T09:03:53.746Z,11.8
2024-02-15T09:04:53.732Z,11.8
2024-02-15T09:05:53.752Z,11.9
2024-02-15T09:06:53.984Z,11.9
2024-02-15T09:07:53.719Z,11.9
2024-02-15T09:08:53.735Z,11.9
2024-02-15T09:09:53.714Z,11.9
2024-02-15T09:10:55.765Z,11.9
2024-02-15T09:11:58.853Z,11.9
2024-02-15T09:12:53.720Z,11.9
2024-02-15T09:13:53.740Z,11.9
2024-02-15T09:14:53.721Z,11.9
2024-02-15T09:15:53.718Z,12
2024-02-15T09:16:53.720Z,12
2024-02-15T09:17:53.755Z,12
2024-02-15T09:18:53.801Z,12
2024-02-15T09:19:53.775Z,12.1
2024-02-15T09:20:53.722Z,12.1
2024-02-15T09:21:53.713Z,12.1
2024-02-15T09:22:53.754Z,12.2
2024-02-15T09:23:53.751Z,12.2
2024-02-15T09:24:53.713Z,12.2
2024-02-15T09:25:53.748Z,12.3
2024-02-15T09:26:53.723Z,12.3
2024-02-15T09:27:53.724Z,12.3
2024-02-15T09:28:53.725Z,12.3
2024-02-15T09:29:53.740Z,12.3
2024-02-15T09:30:53.725Z,12.4
2024-02-15T09:31:53.709Z,12.3
2024-02-15T09:32:54.021Z,12.3
2024-02-15T09:33:57.157Z,12.4
2024-02-15T09:34:59.948Z,12.4
2024-02-15T09:35:53.727Z,12.3
2024-02-15T09:36:53.854Z,12.4
2024-02-15T09:37:53.712Z,12.4
2024-02-15T09:38:53.760Z,12.3
2024-02-15T09:40:53.738Z,12.4
2024-02-15T09:41:53.711Z,12.3
2024-02-15T09:42:53.715Z,12.4
2024-02-15T09:43:53.715Z,12.4
2024-02-15T09:44:53.765Z,12.4
2024-02-15T09:45:53.740Z,12.4
2024-02-15T09:46:53.715Z,12.4
2024-02-15T09:47:53.754Z,12.4
2024-02-15T09:48:53.857Z,12.4
2024-02-15T09:49:53.781Z,12.4
2024-02-15T09:50:53.727Z,12.5
2024-02-15T09:51:53.718Z,12.5
2024-02-15T09:52:53.728Z,12.5
2024-02-15T09:53:53.975Z,12.5
2024-02-15T09:54:56.956Z,12.5
2024-02-15T09:55:59.935Z,12.6
2024-02-15T09:56:53.739Z,12.6
2024-02-15T09:57:53.877Z,12.6
2024-02-15T09:58:53.722Z,12.6
2024-02-15T09:59:53.729Z,12.7
2024-02-15T10:00:53.734Z,12.7
2024-02-15T10:01:53.719Z,12.7
2024-02-15T10:02:53.796Z,12.7
2024-02-15T10:03:53.737Z,12.8
2024-02-15T10:04:53.742Z,12.8
2024-02-15T10:05:53.819Z,12.8
2024-02-15T10:06:53.779Z,12.8
2024-02-15T10:07:53.722Z,12.8
2024-02-15T10:08:53.748Z,12.8
2024-02-15T10:09:53.715Z,12.8
2024-02-15T10:10:53.739Z,12.8
2024-02-15T10:11:53.719Z,12.8
2024-02-15T10:12:53.710Z,12.8
2024-02-15T10:13:53.719Z,12.8
2024-02-15T10:14:54.000Z,12.8
2024-02-15T10:15:57.087Z,12.8
2024-02-15T10:17:00.042Z,12.8
2024-02-15T10:17:53.768Z,12.7
2024-02-15T10:18:54.064Z,12.7
2024-02-15T10:19:53.758Z,12.7
2024-02-15T10:20:53.761Z,12.6
2024-02-15T10:21:53.733Z,12.6
2024-02-15T10:22:53.729Z,12.5
2024-02-15T10:23:53.732Z,12.5
2024-02-15T10:24:53.723Z,12.5
2024-02-15T10:25:53.731Z,12.4
2024-02-15T10:26:53.739Z,12.4
2024-02-15T10:27:53.712Z,12.4
2024-02-15T10:28:53.725Z,12.4
2024-02-15T10:29:53.753Z,12.4
2024-02-15T10:30:53.722Z,12.4
2024-02-15T10:31:53.729Z,12.4
2024-02-15T10:32:55.276Z,12.4
2024-02-15T10:33:53.839Z,12.4
2024-02-15T10:34:53.737Z,12.4
2024-02-15T10:35:54.078Z,12.4
2024-02-15T10:36:57.107Z,12.4
2024-02-15T10:38:00.181Z,12.5
2024-02-15T10:38:53.791Z,12.5
2024-02-15T10:39:54.090Z,12.5
2024-02-15T10:40:53.735Z,12.6
2024-02-15T10:41:53.830Z,12.6
2024-02-15T10:42:53.754Z,12.7
2024-02-15T10:43:53.728Z,12.7
2024-02-15T10:44:53.728Z,12.7
2024-02-15T10:45:53.748Z,12.7
2024-02-15T10:47:53.824Z,12.8
2024-02-15T10:48:53.824Z,12.9
2024-02-15T10:49:53.742Z,12.9
2024-02-15T10:50:53.764Z,12.9
2024-02-15T10:52:53.717Z,13
2024-02-15T10:53:53.769Z,13
2024-02-15T10:54:53.713Z,13.1
2024-02-15T10:55:53.739Z,13.1
2024-02-15T10:56:54.181Z,13.1
2024-02-15T10:57:57.424Z,13.1
2024-02-15T10:59:00.183Z,13.1
2024-02-15T10:59:53.751Z,13.1
2024-02-15T11:00:54.148Z,13.1
2024-02-15T11:01:53.749Z,13.1
2024-02-15T11:02:53.774Z,13.1
2024-02-15T11:03:53.734Z,13.1
2024-02-15T11:04:53.713Z,13.1
2024-02-15T11:05:53.923Z,13.1
2024-02-15T11:06:53.827Z,13.1
2024-02-15T11:07:53.805Z,13.1
2024-02-15T11:08:53.753Z,13.2
2024-02-15T11:09:53.721Z,13.2
2024-02-15T11:10:53.750Z,13.2
2024-02-15T11:11:53.748Z,13.2
2024-02-15T11:12:53.715Z,13.2
2024-02-15T11:13:53.717Z,13.2
2024-02-15T11:14:53.776Z,13.2
2024-02-15T11:15:53.733Z,13.2
2024-02-15T11:16:53.720Z,13.2
2024-02-15T11:17:54.221Z,13.2
2024-02-15T11:18:57.493Z,13.2
2024-02-15T11:20:00.530Z,13.2
2024-02-15T11:20:53.791Z,13.2
2024-02-15T11:21:53.730Z,13.2
2024-02-15T11:22:53.718Z,13.2
2024-02-15T11:23:53.722Z,13.2
2024-02-15T11:24:53.872Z,13.3
2024-02-15T11:25:53.738Z,13.3
2024-02-15T11:26:53.721Z,13.2
2024-02-15T11:27:53.728Z,13.3
2024-02-15T11:28:53.731Z,13.3
2024-02-15T11:29:54.136Z,13.3
2024-02-15T11:30:53.741Z,13.3
2024-02-15T11:31:53.744Z,13.3
2024-02-15T11:32:53.827Z,13.3
2024-02-15T11:33:53.815Z,13.3
2024-02-15T11:34:53.724Z,13.3
2024-02-15T11:35:53.725Z,13.3
2024-02-15T11:36:53.714Z,13.4
2024-02-15T11:37:53.706Z,13.4
2024-02-15T11:38:54.340Z,13.4
2024-02-15T11:39:57.468Z,13.4
2024-02-15T11:41:00.509Z,13.4
2024-02-15T11:41:53.724Z,13.4
2024-02-15T11:42:53.739Z,13.4
2024-02-15T11:43:53.724Z,13.5
2024-02-15T11:44:53.754Z,13.5
2024-02-15T11:45:53.718Z,13.5
2024-02-15T11:46:53.721Z,13.5
2024-02-15T11:47:53.824Z,13.5
2024-02-15T11:48:53.828Z,13.6
2024-02-15T11:49:53.753Z,13.5
2024-02-15T11:50:53.783Z,13.6
2024-02-15T11:51:53.711Z,13.6
2024-02-15T11:52:53.836Z,13.6
2024-02-15T11:53:53.723Z,13.7
2024-02-15T11:54:53.720Z,13.7
2024-02-15T11:55:53.723Z,13.7
2024-02-15T11:56:53.734Z,13.7
2024-02-15T11:57:53.725Z,13.8
2024-02-15T11:58:53.929Z,13.8
2024-02-15T11:59:54.600Z,13.8
2024-02-15T12:00:56.999Z,13.8
2024-02-15T12:01:59.906Z,13.9
2024-02-15T12:02:53.749Z,13.9
2024-02-15T12:03:57.702Z,13.9
2024-02-15T12:04:53.716Z,14
2024-02-15T12:05:53.776Z,14
2024-02-15T12:06:53.860Z,14
2024-02-15T12:07:53.738Z,14
2024-02-15T12:08:53.761Z,14
2024-02-15T12:09:53.716Z,14
2024-02-15T12:10:53.744Z,14
2024-02-15T12:11:53.765Z,14.1
2024-02-15T12:12:53.724Z,14
2024-02-15T12:13:53.876Z,14
2024-02-15T12:14:53.761Z,14
2024-02-15T12:15:53.729Z,14
2024-02-15T12:16:53.715Z,14
2024-02-15T12:17:53.833Z,14
2024-02-15T12:18:54.007Z,14.1
2024-02-15T12:19:53.731Z,14
2024-02-15T12:20:54.549Z,14
2024-02-15T12:22:54.687Z,14.1
2024-02-15T12:23:57.722Z,14.1
2024-02-15T12:25:00.869Z,14.1
2024-02-15T12:25:53.741Z,14.1
2024-02-15T12:26:53.757Z,14.1
2024-02-15T12:27:53.728Z,14.1
2024-02-15T12:28:53.716Z,14.1
2024-02-15T12:29:53.753Z,14.1
2024-02-15T12:30:53.733Z,14.1
2024-02-15T12:31:53.713Z,14.1
2024-02-15T12:32:53.768Z,14.1
2024-02-15T12:33:53.805Z,14.1
2024-02-15T12:34:53.740Z,14.1
2024-02-15T12:35:53.772Z,14.1
2024-02-15T12:36:54.065Z,14.1
2024-02-15T12:37:53.716Z,14.1
2024-02-15T12:38:53.735Z,14.1
2024-02-15T12:39:53.725Z,14.1
2024-02-15T12:40:53.734Z,14.1
2024-02-15T12:41:53.907Z,14.1
2024-02-15T12:42:53.746Z,14.1
2024-02-15T12:43:54.790Z,14.1
2024-02-15T12:44:57.972Z,14.1
2024-02-15T12:46:00.952Z,14.1
2024-02-15T12:46:53.715Z,14.1
2024-02-15T12:47:53.954Z,14.1
2024-02-15T12:48:53.887Z,14.1
2024-02-15T12:49:53.844Z,14.1
2024-02-15T12:50:53.757Z,14.1
2024-02-15T12:51:53.944Z,14.1
2024-02-15T12:52:53.721Z,14.1
2024-02-15T12:53:53.756Z,14.1
2024-02-15T12:54:53.718Z,14.2
2024-02-15T12:55:53.716Z,14.1
2024-02-15T12:56:53.781Z,14.1
2024-02-15T12:57:53.720Z,14.2
2024-02-15T12:58:53.722Z,14.2
2024-02-15T12:59:53.727Z,14.2
2024-02-15T13:00:53.769Z,14.2
2024-02-15T13:01:53.721Z,14.2
2024-02-15T13:02:53.773Z,14.2
2024-02-15T13:03:53.746Z,14.2
2024-02-15T13:04:54.911Z,14.2
2024-02-15T13:05:58.062Z,14.3
2024-02-15T13:07:00.930Z,14.3
2024-02-15T13:07:53.722Z,14.3
2024-02-15T13:08:53.752Z,14.3
2024-02-15T13:09:53.714Z,14.4
2024-02-15T13:10:53.766Z,14.4
2024-02-15T13:11:53.741Z,14.4
2024-02-15T13:12:53.722Z,14.5
2024-02-15T13:13:53.743Z,14.5
2024-02-15T13:14:53.721Z,14.6
2024-02-15T13:15:53.919Z,14.6
2024-02-15T13:16:53.717Z,14.7
2024-02-15T13:17:53.771Z,14.7
2024-02-15T13:18:53.824Z,14.8
2024-02-15T13:19:53.780Z,14.8
2024-02-15T13:20:53.899Z,14.9
2024-02-15T13:21:53.710Z,14.9
2024-02-15T13:22:53.729Z,14.9
2024-02-15T13:23:53.748Z,15
2024-02-15T13:24:53.715Z,15
2024-02-15T13:25:55.054Z,15
2024-02-15T13:26:59.330Z,15
2024-02-15T13:28:53.732Z,15.1
2024-02-15T13:29:53.743Z,15.1
2024-02-15T13:30:53.739Z,15.1
2024-02-15T13:31:53.725Z,15.1
2024-02-15T13:32:53.929Z,15.1
2024-02-15T13:33:53.849Z,15.1
2024-02-15T13:34:53.739Z,15.1
2024-02-15T13:35:53.788Z,15.1
2024-02-15T13:36:53.761Z,15.1